createdAt,value
2023-03-03T00:00:46.724Z,25.98
2023-03-03T00:03:23.247Z,24.67
2023-03-03T00:05:54.947Z,23.00
2023-03-03T00:08:26.532Z,23.27
2023-03-03T00:10:57.541Z,21.52
2023-03-03T00:13:29.048Z,22.35
2023-03-03T00:16:31.149Z,22.58
2023-03-03T00:19:02.214Z,22.50
2023-03-03T00:21:36.924Z,15.88
2023-03-03T00:24:35.441Z,17.13
2023-03-03T00:27:33.987Z,15.35
2023-03-03T00:30:05.024Z,19.48
2023-03-03T00:32:54.082Z,15.93
2023-03-03T00:35:31.485Z,15.85
2023-03-03T00:38:03.390Z,16.92
2023-03-03T00:40:39.681Z,18.30
2023-03-03T00:43:22.987Z,20.95
2023-03-03T00:45:58.282Z,22.35
2023-03-03T00:48:37.357Z,20.13
2023-03-03T00:51:36.685Z,17.88
2023-03-03T00:54:10.037Z,12.88
2023-03-03T00:56:40.775Z,20.20
2023-03-03T00:59:12.900Z,15.23
2023-03-03T01:01:43.722Z,17.67
2023-03-03T01:04:14.527Z,17.35
2023-03-03T01:06:45.596Z,12.82
2023-03-03T01:09:16.207Z,16.58
2023-03-03T01:11:46.930Z,12.57
2023-03-03T01:14:19.977Z,16.42
2023-03-03T01:16:51.215Z,15.77
2023-03-03T01:19:22.069Z,14.07
2023-03-03T01:21:54.548Z,16.40
2023-03-03T01:24:26.686Z,19.23
2023-03-03T01:26:57.255Z,16.88
2023-03-03T01:29:27.585Z,17.52
2023-03-03T01:32:01.049Z,13.63
2023-03-03T01:34:31.393Z,15.10
2023-03-03T01:37:02.072Z,11.82
2023-03-03T01:39:33.088Z,14.65
2023-03-03T01:42:05.079Z,11.70
2023-03-03T01:44:36.198Z,11.15
2023-03-03T01:47:18.945Z,19.67
2023-03-03T01:49:54.868Z,15.65
2023-03-03T01:52:36.096Z,13.40
2023-03-03T01:55:11.177Z,13.13
2023-03-03T01:57:47.958Z,17.48
2023-03-03T02:00:18.728Z,15.82
2023-03-03T02:02:50.620Z,16.90
2023-03-03T02:05:21.932Z,17.45
2023-03-03T02:07:53.909Z,12.25
2023-03-03T02:10:24.640Z,11.98
2023-03-03T02:12:58.328Z,16.15
2023-03-03T02:15:34.514Z,16.58
2023-03-03T02:18:16.470Z,16.63
2023-03-03T02:20:50.111Z,14.77
2023-03-03T02:23:36.872Z,10.23
2023-03-03T02:26:10.453Z,12.20
2023-03-03T02:28:43.174Z,12.23
2023-03-03T02:31:17.908Z,11.48
2023-03-03T02:33:57.170Z,12.80
2023-03-03T02:36:31.091Z,10.48
2023-03-03T02:39:06.594Z,12.27
2023-03-03T02:41:37.344Z,14.95
2023-03-03T02:44:15.355Z,13.65
2023-03-03T02:46:48.708Z,11.48
2023-03-03T02:49:28.067Z,9.32
2023-03-03T02:52:01.928Z,17.23
2023-03-03T02:54:33.869Z,10.98
2023-03-03T02:57:07.185Z,10.82
2023-03-03T02:59:40.304Z,14.48
2023-03-03T03:02:14.734Z,13.23
2023-03-03T03:04:45.380Z,15.05
2023-03-03T03:07:19.561Z,11.38
2023-03-03T03:09:50.936Z,13.40
2023-03-03T03:12:22.208Z,13.23
2023-03-03T03:14:56.341Z,10.75
2023-03-03T03:17:27.707Z,13.18
2023-03-03T03:19:58.503Z,12.45
2023-03-03T03:22:31.943Z,11.93
2023-03-03T03:25:03.685Z,9.68
2023-03-03T03:27:35.509Z,10.00
2023-03-03T03:30:07.680Z,9.07
2023-03-03T03:32:38.907Z,14.10
2023-03-03T03:35:10.480Z,9.38
2023-03-03T03:37:42.374Z,15.13
2023-03-03T03:40:14.225Z,13.60
2023-03-03T03:42:44.864Z,10.90
2023-03-03T03:45:16.185Z,12.25
2023-03-03T03:47:49.703Z,8.95
2023-03-03T03:50:21.209Z,11.05
2023-03-03T03:52:51.729Z,10.10
2023-03-03T03:55:24.059Z,13.98
2023-03-03T03:57:54.890Z,9.50
2023-03-03T04:00:26.923Z,10.55
2023-03-03T04:03:02.031Z,15.73
2023-03-03T04:05:33.143Z,10.73
2023-03-03T04:08:04.218Z,14.30
2023-03-03T04:10:34.836Z,12.55
2023-03-03T04:13:05.270Z,12.65
2023-03-03T04:15:37.119Z,11.93
2023-03-03T04:18:08.029Z,14.63
2023-03-03T04:20:38.792Z,8.75
2023-03-03T04:23:10.832Z,11.98
2023-03-03T04:25:41.815Z,13.75
2023-03-03T04:28:20.740Z,13.10
2023-03-03T04:30:53.614Z,13.38
2023-03-03T04:33:26.130Z,11.75
2023-03-03T04:35:57.569Z,9.30
2023-03-03T04:38:28.636Z,9.55
2023-03-03T04:40:59.737Z,8.90
2023-03-03T04:43:34.792Z,7.93
2023-03-03T04:46:08.233Z,9.60
2023-03-03T04:48:41.070Z,11.60
2023-03-03T04:51:13.328Z,11.02
2023-03-03T04:53:54.247Z,6.45
2023-03-03T04:56:28.054Z,6.28
2023-03-03T04:58:59.298Z,6.68
2023-03-03T05:01:30.597Z,11.20
2023-03-03T05:04:01.807Z,12.20
2023-03-03T05:06:32.138Z,7.85
2023-03-03T05:09:02.806Z,10.45
2023-03-03T05:11:33.524Z,9.88
2023-03-03T05:14:09.068Z,9.70
2023-03-03T05:16:39.730Z,9.23
2023-03-03T05:19:10.559Z,9.07
2023-03-03T05:21:43.361Z,8.85
2023-03-03T05:24:14.951Z,12.05
2023-03-03T05:26:45.253Z,13.43
2023-03-03T05:29:16.036Z,7.93
2023-03-03T05:31:46.878Z,10.73
2023-03-03T05:34:18.428Z,14.38
2023-03-03T05:36:50.297Z,10.23
2023-03-03T05:39:20.706Z,10.95
2023-03-03T05:41:51.931Z,11.25
2023-03-03T05:44:22.925Z,9.18
2023-03-03T05:46:54.178Z,10.52
2023-03-03T05:49:24.991Z,10.82
2023-03-03T05:51:56.156Z,11.15
2023-03-03T05:54:26.866Z,13.45
2023-03-03T05:57:00.288Z,13.23
2023-03-03T05:59:31.836Z,17.30
2023-03-03T06:02:04.596Z,14.27
2023-03-03T06:04:35.185Z,11.70
2023-03-03T06:07:05.694Z,9.80
2023-03-03T06:09:36.571Z,9.77
2023-03-03T06:12:07.516Z,13.88
2023-03-03T06:14:38.201Z,15.20
2023-03-03T06:17:08.560Z,9.73
2023-03-03T06:19:48.682Z,9.43
2023-03-03T06:22:20.100Z,8.05
2023-03-03T06:24:50.511Z,9.65
2023-03-03T06:27:21.295Z,10.23
2023-03-03T06:29:51.884Z,10.93
2023-03-03T06:32:22.422Z,8.98
2023-03-03T06:34:53.367Z,8.93
2023-03-03T06:37:25.737Z,6.97
2023-03-03T06:39:56.683Z,8.32
2023-03-03T06:42:27.349Z,8.27
2023-03-03T06:44:58.270Z,9.95
2023-03-03T06:47:28.885Z,6.38
2023-03-03T06:49:59.301Z,11.77
2023-03-03T06:52:30.435Z,10.02
2023-03-03T06:55:03.031Z,8.60
2023-03-03T06:57:35.031Z,10.30
2023-03-03T07:00:17.595Z,9.93
2023-03-03T07:02:52.328Z,10.68
2023-03-03T07:05:23.911Z,11.35
2023-03-03T07:07:55.446Z,10.30
2023-03-03T07:10:29.308Z,12.45
2023-03-03T07:13:15.122Z,10.98
2023-03-03T07:15:46.955Z,11.55
2023-03-03T07:18:39.438Z,9.52
2023-03-03T07:21:15.432Z,9.50
2023-03-03T07:23:47.240Z,9.00
2023-03-03T07:26:27.356Z,10.80
2023-03-03T07:29:02.071Z,10.43
2023-03-03T07:31:39.543Z,10.10
2023-03-03T07:34:23.737Z,14.70
2023-03-03T07:37:01.869Z,12.00
2023-03-03T07:39:38.435Z,14.52
2023-03-03T07:42:10.817Z,12.32
2023-03-03T07:44:41.233Z,15.48
2023-03-03T07:47:20.402Z,13.82
2023-03-03T07:49:51.382Z,10.50
2023-03-03T07:53:00.108Z,10.13
2023-03-03T07:55:41.320Z,12.48
2023-03-03T07:58:18.083Z,11.80
2023-03-03T08:00:55.031Z,11.27
2023-03-03T08:03:37.966Z,14.82
2023-03-03T08:06:37.972Z,10.05
2023-03-03T08:09:11.664Z,17.80
2023-03-03T08:12:08.909Z,15.82
2023-03-03T08:14:40.078Z,12.35
2023-03-03T08:17:21.410Z,11.13
2023-03-03T08:19:53.088Z,13.80
2023-03-03T08:22:36.774Z,13.77
2023-03-03T08:25:07.499Z,14.32
2023-03-03T08:27:38.480Z,12.77
2023-03-03T08:30:09.362Z,12.73
2023-03-03T08:32:39.757Z,9.68
2023-03-03T08:35:11.095Z,13.10
2023-03-03T08:37:41.476Z,12.23
2023-03-03T08:40:12.530Z,10.77
2023-03-03T08:42:42.814Z,12.05
2023-03-03T08:45:13.559Z,14.73
2023-03-03T08:47:45.823Z,12.57
2023-03-03T08:50:17.083Z,22.60
2023-03-03T08:52:48.357Z,13.82
2023-03-03T08:55:19.690Z,16.10
2023-03-03T08:57:50.337Z,12.98
2023-03-03T09:00:21.574Z,16.98
2023-03-03T09:02:52.857Z,15.35
2023-03-03T09:05:24.314Z,12.77
2023-03-03T09:07:55.497Z,18.13
2023-03-03T09:10:31.816Z,11.88
2023-03-03T09:13:30.553Z,11.77
2023-03-03T09:16:00.998Z,13.57
2023-03-03T09:18:39.114Z,11.27
2023-03-03T09:21:38.594Z,13.57
2023-03-03T09:24:28.955Z,13.93
2023-03-03T09:27:00.440Z,13.52
2023-03-03T09:29:32.878Z,13.30
2023-03-03T09:32:17.091Z,14.05
2023-03-03T09:34:49.096Z,14.52
2023-03-03T09:37:33.463Z,17.63
2023-03-03T09:40:29.127Z,14.43
2023-03-03T09:43:30.750Z,16.10
2023-03-03T09:46:32.198Z,16.15
2023-03-03T09:49:36.415Z,14.45
2023-03-03T09:52:21.651Z,16.20
2023-03-03T09:54:55.131Z,11.75
2023-03-03T09:57:40.072Z,10.73
2023-03-03T10:00:42.859Z,10.02
2023-03-03T10:03:22.149Z,17.05
2023-03-03T10:06:22.534Z,16.98
2023-03-03T10:09:08.697Z,15.88
2023-03-03T10:12:07.544Z,23.38
2023-03-03T10:14:53.911Z,14.05
2023-03-03T10:17:51.826Z,15.38
2023-03-03T10:20:56.193Z,15.45
2023-03-03T10:23:49.723Z,11.40
2023-03-03T10:27:05.268Z,13.02
2023-03-03T10:29:53.495Z,15.07
2023-03-03T10:32:46.705Z,15.52
2023-03-03T10:35:25.264Z,14.50
2023-03-03T10:38:19.931Z,19.75
2023-03-03T10:40:50.856Z,15.98
2023-03-03T10:43:49.991Z,22.95
2023-03-03T10:46:46.532Z,18.25
2023-03-03T10:49:44.574Z,16.58
2023-03-03T10:52:41.698Z,19.10
2023-03-03T10:55:25.578Z,19.85
2023-03-03T10:58:09.850Z,18.90
2023-03-03T11:01:02.683Z,22.88
2023-03-03T11:03:49.309Z,19.23
2023-03-03T11:07:00.231Z,22.17
2023-03-03T11:09:41.728Z,16.63
2023-03-03T11:12:15.259Z,20.00
2023-03-03T11:15:06.185Z,18.60
2023-03-03T11:17:43.408Z,18.98
2023-03-03T11:20:25.958Z,13.85
2023-03-03T11:23:27.344Z,17.15
2023-03-03T11:26:24.194Z,39.75
2023-03-03T11:29:08.649Z,39.05
2023-03-03T11:32:09.765Z,18.98
2023-03-03T11:35:15.497Z,23.85
2023-03-03T11:37:59.243Z,30.25
2023-03-03T11:40:39.829Z,30.42
2023-03-03T11:43:42.355Z,26.80
2023-03-03T11:46:32.468Z,23.42
2023-03-03T11:49:10.949Z,17.08
2023-03-03T11:51:48.133Z,14.48
2023-03-03T11:54:21.821Z,14.07
2023-03-03T11:57:22.212Z,18.33
2023-03-03T12:00:10.281Z,16.73
2023-03-03T12:03:15.236Z,14.38
2023-03-03T12:05:59.524Z,19.17
2023-03-03T12:08:55.357Z,16.42
2023-03-03T12:11:55.161Z,17.08
2023-03-03T12:14:56.222Z,12.25
2023-03-03T12:17:39.474Z,15.88
2023-03-03T12:20:25.051Z,15.77
2023-03-03T12:23:07.922Z,16.00
2023-03-03T12:25:42.573Z,13.82
2023-03-03T12:28:45.248Z,22.08
2023-03-03T12:31:30.594Z,19.73
2023-03-03T12:34:11.032Z,32.60
2023-03-03T12:37:07.702Z,25.90
2023-03-03T12:40:17.032Z,15.43
2023-03-03T12:43:19.650Z,17.70
2023-03-03T12:46:15.780Z,13.98
2023-03-03T12:48:47.396Z,18.23
2023-03-03T12:52:06.925Z,17.00
2023-03-03T12:54:46.392Z,12.77
2023-03-03T12:57:20.881Z,14.55
2023-03-03T13:00:09.281Z,17.13
2023-03-03T13:03:00.706Z,15.35
2023-03-03T13:05:37.139Z,16.25
2023-03-03T13:08:14.078Z,15.32
2023-03-03T13:11:03.175Z,21.50
2023-03-03T13:13:52.010Z,13.02
2023-03-03T13:16:51.715Z,12.93
2023-03-03T13:19:29.644Z,13.82
2023-03-03T13:22:19.715Z,15.57
2023-03-03T13:25:05.274Z,13.68
2023-03-03T13:27:47.317Z,17.48
2023-03-03T13:30:26.892Z,17.40
2023-03-03T13:32:59.844Z,14.43
2023-03-03T13:35:35.402Z,14.13
2023-03-03T13:38:07.959Z,14.82
2023-03-03T13:40:54.566Z,13.18
2023-03-03T13:43:41.151Z,17.70
2023-03-03T13:46:32.839Z,17.77
2023-03-03T13:49:21.660Z,14.05
2023-03-03T13:52:28.367Z,14.20
2023-03-03T13:55:15.477Z,19.30
2023-03-03T13:58:07.075Z,14.32
2023-03-03T14:00:55.537Z,15.40
2023-03-03T14:03:47.455Z,14.88
2023-03-03T14:06:31.199Z,15.88
2023-03-03T14:09:23.008Z,17.02
2023-03-03T14:11:57.676Z,14.80
2023-03-03T14:14:46.751Z,17.40
2023-03-03T14:17:54.289Z,15.18
2023-03-03T14:20:32.211Z,15.85
2023-03-03T14:23:24.311Z,19.38
2023-03-03T14:26:16.591Z,24.40
2023-03-03T14:28:50.673Z,18.33
2023-03-03T14:31:32.606Z,18.88
2023-03-03T14:34:13.800Z,17.48
2023-03-03T14:36:45.353Z,20.40
2023-03-03T14:39:40.530Z,21.65
2023-03-03T14:42:37.167Z,22.80
2023-03-03T14:45:31.337Z,18.23
2023-03-03T14:48:17.485Z,21.55
2023-03-03T14:50:51.112Z,19.70
2023-03-03T14:53:22.858Z,23.70
2023-03-03T14:55:55.299Z,22.02
2023-03-03T14:58:36.019Z,26.10
2023-03-03T15:01:21.780Z,19.67
2023-03-03T15:04:04.605Z,20.60
2023-03-03T15:06:43.233Z,17.45
2023-03-03T15:09:43.382Z,20.88
2023-03-03T15:12:49.189Z,16.55
2023-03-03T15:15:23.531Z,14.73
2023-03-03T15:18:03.647Z,14.38
2023-03-03T15:20:44.147Z,14.52
2023-03-03T15:23:26.727Z,16.65
2023-03-03T15:25:59.927Z,20.38
2023-03-03T15:28:53.284Z,17.38
2023-03-03T15:31:50.881Z,15.93
2023-03-03T15:34:29.865Z,21.88
2023-03-03T15:37:00.414Z,17.95
2023-03-03T15:40:14.995Z,21.73
2023-03-03T15:42:58.141Z,23.45
2023-03-03T15:46:01.642Z,19.80
2023-03-03T15:48:58.180Z,19.73
2023-03-03T15:52:02.467Z,17.00
2023-03-03T15:54:48.459Z,24.00
2023-03-03T15:57:30.243Z,19.10
2023-03-03T16:00:23.323Z,18.73
2023-03-03T16:03:28.513Z,19.23
2023-03-03T16:06:07.834Z,19.60
2023-03-03T16:08:57.520Z,16.98
2023-03-03T16:11:54.716Z,10.48
2023-03-03T16:14:46.358Z,15.77
2023-03-03T16:17:23.291Z,18.65
2023-03-03T16:20:17.295Z,20.75
2023-03-03T16:23:05.995Z,19.10
2023-03-03T16:25:42.256Z,29.08
2023-03-03T16:28:17.424Z,22.98
2023-03-03T16:30:51.083Z,29.55
2023-03-03T16:33:25.760Z,24.48
2023-03-03T16:36:34.698Z,27.50
2023-03-03T16:39:11.595Z,23.08
2023-03-03T16:41:47.911Z,23.85
2023-03-03T16:44:51.986Z,27.13
2023-03-03T16:47:40.440Z,24.95
2023-03-03T16:50:29.885Z,23.40
2023-03-03T16:53:21.399Z,26.85
2023-03-03T16:56:03.502Z,30.17
2023-03-03T16:58:58.172Z,30.02
2023-03-03T17:01:47.366Z,30.15
2023-03-03T17:04:36.396Z,38.20
2023-03-03T17:07:50.768Z,47.25
2023-03-03T17:10:32.959Z,35.63
2023-03-03T17:13:25.545Z,45.00
2023-03-03T17:16:24.017Z,43.72
2023-03-03T17:19:08.645Z,31.17
2023-03-03T17:22:16.229Z,35.78
2023-03-03T17:25:04.787Z,41.10
2023-03-03T17:27:59.541Z,36.65
2023-03-03T17:30:51.023Z,41.35
2023-03-03T17:33:30.022Z,39.40
2023-03-03T17:36:37.192Z,37.10
2023-03-03T17:39:39.561Z,42.58
2023-03-03T17:42:13.306Z,38.30
2023-03-03T17:44:58.641Z,40.00
2023-03-03T17:47:49.203Z,38.30
2023-03-03T17:50:40.922Z,33.70
2023-03-03T17:53:35.336Z,25.13
2023-03-03T17:56:32.069Z,28.85
2023-03-03T17:59:14.341Z,36.25
2023-03-03T18:01:55.711Z,34.15
2023-03-03T18:04:32.124Z,31.20
2023-03-03T18:07:26.657Z,32.00
2023-03-03T18:10:12.250Z,30.77
2023-03-03T18:13:09.936Z,34.55
2023-03-03T18:16:09.043Z,33.90
2023-03-03T18:19:11.295Z,38.60
2023-03-03T18:21:58.063Z,30.50
2023-03-03T18:25:02.634Z,28.75
2023-03-03T18:27:36.476Z,27.77
2023-03-03T18:30:09.986Z,30.17
2023-03-03T18:33:01.379Z,25.55
2023-03-03T18:35:36.535Z,29.40
2023-03-03T18:38:19.852Z,29.58
2023-03-03T18:40:55.354Z,31.27
2023-03-03T18:43:47.130Z,30.02
2023-03-03T18:46:26.223Z,25.75
2023-03-03T18:49:09.706Z,27.55
2023-03-03T18:51:43.321Z,22.77
2023-03-03T18:54:18.148Z,30.83
2023-03-03T18:57:17.245Z,24.80
2023-03-03T18:59:59.367Z,31.98
2023-03-03T19:02:36.966Z,30.80
2023-03-03T19:05:21.610Z,27.02
2023-03-03T19:08:17.782Z,30.83
2023-03-03T19:10:53.011Z,29.80
2023-03-03T19:13:44.225Z,27.95
2023-03-03T19:16:26.258Z,34.78
2023-03-03T19:18:57.271Z,29.45
2023-03-03T19:21:39.397Z,29.20
2023-03-03T19:24:29.430Z,28.05
2023-03-03T19:27:12.709Z,24.45
2023-03-03T19:29:45.995Z,28.83
2023-03-03T19:32:40.264Z,26.27
2023-03-03T19:35:17.612Z,27.45
2023-03-03T19:38:03.892Z,28.15
2023-03-03T19:40:47.129Z,31.25
2023-03-03T19:43:47.026Z,30.08
2023-03-03T19:46:37.408Z,27.27
2023-03-03T19:49:18.288Z,32.40
2023-03-03T19:52:25.644Z,27.30
2023-03-03T19:55:26.594Z,37.40
2023-03-03T19:57:59.049Z,25.98
2023-03-03T20:00:51.427Z,26.30
2023-03-03T20:03:35.069Z,27.42
2023-03-03T20:06:25.097Z,26.38
2023-03-03T20:09:03.701Z,25.80
2023-03-03T20:11:49.043Z,27.35
2023-03-03T20:14:41.916Z,24.98
2023-03-03T20:17:36.686Z,26.42
2023-03-03T20:20:32.536Z,28.65
2023-03-03T20:23:21.368Z,27.25
2023-03-03T20:26:24.408Z,32.33
2023-03-03T20:29:12.478Z,31.70
2023-03-03T20:32:04.367Z,24.02
2023-03-03T20:35:07.195Z,30.05
2023-03-03T20:38:01.780Z,32.67
2023-03-03T20:40:47.015Z,29.27
2023-03-03T20:43:26.451Z,29.48
2023-03-03T20:46:02.692Z,29.67
2023-03-03T20:48:35.897Z,30.23
2023-03-03T20:51:33.030Z,31.77
2023-03-03T20:54:12.319Z,26.77
2023-03-03T20:56:51.289Z,31.38
2023-03-03T20:59:43.800Z,33.80
2023-03-03T21:02:29.338Z,31.65
2023-03-03T21:05:18.354Z,37.55
2023-03-03T21:08:05.156Z,38.15
2023-03-03T21:10:37.638Z,41.45
2023-03-03T21:13:41.842Z,35.28
2023-03-03T21:16:22.653Z,38.40
2023-03-03T21:19:04.041Z,39.08
2023-03-03T21:21:41.696Z,38.05
2023-03-03T21:24:16.224Z,40.92
2023-03-03T21:27:01.265Z,36.20
2023-03-03T21:29:36.608Z,44.88
2023-03-03T21:32:09.257Z,36.08
2023-03-03T21:34:43.759Z,33.45
2023-03-03T21:37:49.189Z,40.00
2023-03-03T21:40:21.696Z,42.55
2023-03-03T21:42:56.130Z,39.20
2023-03-03T21:45:27.341Z,42.00
2023-03-03T21:48:02.105Z,47.97
2023-03-03T21:50:36.560Z,44.60
2023-03-03T21:53:07.191Z,42.20
2023-03-03T21:55:38.050Z,48.22
2023-03-03T21:58:08.556Z,43.05
2023-03-03T22:00:40.695Z,44.28
2023-03-03T22:03:12.335Z,46.90
2023-03-03T22:05:44.819Z,42.83
2023-03-03T22:08:23.254Z,39.28
2023-03-03T22:10:57.408Z,43.65
2023-03-03T22:13:28.210Z,46.58
2023-03-03T22:15:59.176Z,48.20
2023-03-03T22:18:42.624Z,38.03
2023-03-03T22:21:13.695Z,43.22
2023-03-03T22:23:46.866Z,46.80
2023-03-03T22:26:17.199Z,43.78
2023-03-03T22:28:47.767Z,47.35
2023-03-03T22:31:23.780Z,40.28
2023-03-03T22:33:54.395Z,41.67
2023-03-03T22:36:24.837Z,40.60
2023-03-03T22:38:55.736Z,40.78
2023-03-03T22:41:26.624Z,52.35
2023-03-03T22:43:57.205Z,39.33
2023-03-03T22:46:27.815Z,40.60
2023-03-03T22:48:58.331Z,39.80
2023-03-03T22:51:28.927Z,41.80
2023-03-03T22:54:02.430Z,50.25
2023-03-03T22:56:33.120Z,43.58
2023-03-03T22:59:03.871Z,51.78
2023-03-03T23:01:36.749Z,50.17
2023-03-03T23:04:08.752Z,47.53
2023-03-03T23:06:39.548Z,48.92
2023-03-03T23:09:10.132Z,51.22
2023-03-03T23:11:41.288Z,45.10
2023-03-03T23:14:11.772Z,49.05
2023-03-03T23:16:42.386Z,48.85
2023-03-03T23:19:13.287Z,44.45
2023-03-03T23:21:46.332Z,48.10
2023-03-03T23:24:16.805Z,42.47
2023-03-03T23:26:47.865Z,43.35
2023-03-03T23:29:18.178Z,44.50
2023-03-03T23:31:48.606Z,43.30
2023-03-03T23:34:19.187Z,43.50
2023-03-03T23:36:49.882Z,39.38
2023-03-03T23:39:20.927Z,41.72
2023-03-03T23:41:51.684Z,39.17
2023-03-03T23:44:22.292Z,35.90
2023-03-03T23:46:54.328Z,41.70
2023-03-03T23:49:24.624Z,38.33
2023-03-03T23:51:55.465Z,33.75
2023-03-03T23:54:26.172Z,34.58
2023-03-03T23:56:57.418Z,31.80
2023-03-03T23:59:38.549Z,39.20
